createdAt,value
2019-03-04T00:01:38.455Z,1.20
2019-03-04T00:04:06.715Z,1.17
2019-03-04T00:06:37.679Z,1.30
2019-03-04T00:09:08.155Z,1.22
2019-03-04T00:11:36.428Z,1.35
2019-03-04T00:14:04.758Z,1.15
2019-03-04T00:16:33.115Z,1.32
2019-03-04T00:19:05.836Z,1.25
2019-03-04T00:21:34.104Z,1.32
2019-03-04T00:24:05.098Z,1.65
2019-03-04T00:26:37.962Z,1.50
2019-03-04T00:29:06.229Z,2.00
2019-03-04T00:31:36.854Z,2.58
2019-03-04T00:34:04.493Z,1.10
2019-03-04T00:36:32.777Z,1.65
2019-03-04T00:39:04.120Z,1.50
2019-03-04T00:41:34.019Z,1.20
2019-03-04T00:44:02.279Z,1.12
2019-03-04T00:46:30.575Z,1.10
2019-03-04T00:48:58.858Z,1.60
2019-03-04T00:51:27.185Z,1.40
2019-03-04T00:53:55.469Z,1.22
2019-03-04T00:56:23.734Z,1.50
2019-03-04T00:58:53.624Z,1.20
2019-03-04T01:01:24.861Z,1.70
2019-03-04T01:03:53.111Z,1.30
2019-03-04T01:06:21.372Z,1.60
2019-03-04T01:08:49.677Z,1.30
2019-03-04T01:11:22.121Z,1.52
2019-03-04T01:13:50.390Z,1.15
2019-03-04T01:16:18.672Z,1.30
2019-03-04T01:18:52.972Z,1.20
2019-03-04T01:21:21.240Z,1.45
2019-03-04T01:23:51.486Z,1.35
2019-03-04T01:26:19.516Z,1.37
2019-03-04T01:28:47.771Z,1.20
2019-03-04T01:31:20.714Z,1.37
2019-03-04T01:33:48.974Z,1.12
2019-03-04T01:36:17.240Z,1.20
2019-03-04T01:38:47.117Z,1.70
2019-03-04T01:41:15.386Z,1.40
2019-03-04T01:43:43.645Z,1.10
2019-03-04T01:46:11.932Z,0.88
2019-03-04T01:48:40.196Z,0.98
2019-03-04T01:51:08.468Z,1.10
2019-03-04T01:53:36.759Z,1.10
2019-03-04T01:56:05.100Z,1.00
2019-03-04T01:58:33.380Z,1.07
2019-03-04T02:01:01.714Z,1.10
2019-03-04T02:03:29.981Z,1.12
2019-03-04T02:05:59.973Z,1.10
2019-03-04T02:08:28.316Z,1.10
2019-03-04T02:10:56.575Z,1.30
2019-03-04T02:13:24.836Z,1.10
2019-03-04T02:15:53.119Z,1.10
2019-03-04T02:18:26.816Z,1.15
2019-03-04T02:20:55.072Z,1.27
2019-03-04T02:23:23.363Z,1.17
2019-03-04T02:26:10.584Z,1.00
2019-03-04T02:28:38.859Z,1.20
2019-03-04T02:31:07.131Z,0.98
2019-03-04T02:33:35.468Z,1.10
2019-03-04T02:36:03.808Z,1.00
2019-03-04T02:38:32.069Z,1.20
2019-03-04T02:41:01.965Z,1.20
2019-03-04T02:43:30.309Z,1.12
2019-03-04T02:45:59.057Z,1.42
2019-03-04T02:48:27.324Z,1.30
2019-03-04T02:50:55.677Z,1.20
2019-03-04T02:53:23.998Z,1.40
2019-03-04T02:55:52.284Z,1.40
2019-03-04T02:58:20.636Z,1.12
2019-03-04T03:00:48.916Z,1.02
2019-03-04T03:03:17.272Z,1.10
2019-03-04T03:05:45.611Z,1.30
2019-03-04T03:08:13.864Z,1.37
2019-03-04T03:10:43.752Z,1.17
2019-03-04T03:13:12.032Z,1.40
2019-03-04T03:15:40.288Z,1.32
2019-03-04T03:18:08.548Z,1.30
2019-03-04T03:20:36.833Z,1.20
2019-03-04T03:23:05.100Z,1.40
2019-03-04T03:25:33.359Z,1.32
2019-03-04T03:28:01.702Z,1.20
2019-03-04T03:30:32.918Z,1.00
2019-03-04T03:33:01.245Z,1.15
2019-03-04T03:35:29.995Z,0.95
2019-03-04T03:37:58.326Z,0.93
2019-03-04T03:40:26.583Z,1.05
2019-03-04T03:42:54.861Z,0.90
2019-03-04T03:45:23.120Z,1.20
2019-03-04T03:47:51.378Z,0.98
2019-03-04T03:50:19.669Z,1.00
2019-03-04T03:52:47.970Z,1.05
2019-03-04T03:55:16.898Z,1.00
2019-03-04T03:57:45.347Z,0.90
2019-03-04T04:00:21.189Z,1.00
2019-03-04T04:02:49.534Z,1.12
2019-03-04T04:05:17.800Z,1.40
2019-03-04T04:07:49.131Z,1.05
2019-03-04T04:10:21.529Z,1.22
2019-03-04T04:12:49.850Z,1.07
2019-03-04T04:15:19.123Z,0.98
2019-03-04T04:17:47.494Z,1.00
2019-03-04T04:20:15.818Z,0.93
2019-03-04T04:22:44.078Z,1.30
2019-03-04T04:25:12.636Z,1.20
2019-03-04T04:27:40.953Z,1.10
2019-03-04T04:30:15.220Z,1.20
2019-03-04T04:32:44.687Z,1.50
2019-03-04T04:35:12.919Z,1.42
2019-03-04T04:37:41.185Z,1.47
2019-03-04T04:40:11.406Z,1.02
2019-03-04T04:42:39.733Z,1.10
2019-03-04T04:45:11.784Z,1.82
2019-03-04T04:47:41.964Z,1.30
2019-03-04T04:50:16.330Z,1.00
2019-03-04T04:52:44.644Z,1.42
2019-03-04T04:55:12.985Z,1.17
2019-03-04T04:57:41.317Z,1.30
2019-03-04T05:00:12.728Z,1.25
2019-03-04T05:02:41.027Z,1.20
2019-03-04T05:05:13.243Z,1.42
2019-03-04T05:07:43.147Z,1.27
2019-03-04T05:10:19.763Z,1.62
2019-03-04T05:12:48.104Z,1.65
2019-03-04T05:15:16.772Z,1.35
2019-03-04T05:17:45.054Z,1.40
2019-03-04T05:20:21.970Z,1.40
2019-03-04T05:22:50.273Z,1.30
2019-03-04T05:25:18.599Z,1.30
2019-03-04T05:27:46.857Z,1.30
2019-03-04T05:30:22.784Z,1.42
2019-03-04T05:32:54.001Z,1.20
2019-03-04T05:35:22.265Z,1.30
2019-03-04T05:37:52.278Z,1.20
2019-03-04T05:40:21.382Z,1.30
2019-03-04T05:42:49.644Z,1.00
2019-03-04T05:45:18.739Z,0.98
2019-03-04T05:47:47.068Z,1.02
2019-03-04T05:50:28.130Z,1.20
2019-03-04T05:52:57.633Z,1.10
2019-03-04T05:55:25.868Z,1.12
2019-03-04T05:57:54.150Z,1.12
2019-03-04T06:00:24.830Z,1.27
2019-03-04T06:02:56.731Z,1.30
2019-03-04T06:05:24.981Z,1.05
2019-03-04T06:07:54.903Z,1.02
2019-03-04T06:10:23.164Z,0.95
2019-03-04T06:12:51.430Z,1.00
2019-03-04T06:15:24.618Z,0.90
2019-03-04T06:17:52.879Z,1.10
2019-03-04T06:20:23.873Z,1.10
2019-03-04T06:22:52.208Z,1.02
2019-03-04T06:25:30.841Z,1.37
2019-03-04T06:27:58.518Z,1.20
2019-03-04T06:30:31.587Z,1.17
2019-03-04T06:32:59.952Z,1.20
2019-03-04T06:35:28.220Z,1.20
2019-03-04T06:37:56.562Z,1.35
2019-03-04T06:40:24.943Z,1.30
2019-03-04T06:42:53.208Z,1.10
2019-03-04T06:45:21.469Z,1.40
2019-03-04T06:47:49.767Z,1.22
2019-03-04T06:50:47.863Z,1.30
2019-03-04T06:53:37.468Z,1.37
2019-03-04T06:56:11.599Z,1.27
2019-03-04T06:58:46.053Z,1.32
2019-03-04T07:01:17.370Z,1.60
2019-03-04T07:03:46.061Z,1.50
2019-03-04T07:06:14.332Z,1.70
2019-03-04T07:08:45.851Z,1.70
2019-03-04T07:11:14.188Z,1.53
2019-03-04T07:13:42.497Z,1.57
2019-03-04T07:16:10.805Z,1.42
2019-03-04T07:18:39.088Z,1.52
2019-03-04T07:21:07.356Z,1.32
2019-03-04T07:23:35.614Z,1.85
2019-03-04T07:26:03.961Z,1.60
2019-03-04T07:28:32.267Z,1.62
2019-03-04T07:31:02.199Z,2.08
2019-03-04T07:33:31.980Z,1.52
2019-03-04T07:36:00.332Z,1.80
2019-03-04T07:38:48.245Z,1.57
2019-03-04T07:41:18.169Z,1.25
2019-03-04T07:43:46.424Z,1.55
2019-03-04T07:46:14.680Z,1.45
2019-03-04T07:48:47.293Z,1.70
2019-03-04T07:51:21.853Z,1.45
2019-03-04T07:53:51.304Z,1.40
2019-03-04T07:56:19.604Z,1.45
2019-03-04T07:58:50.385Z,1.80
2019-03-04T08:01:18.692Z,1.55
2019-03-04T08:03:48.600Z,1.40
2019-03-04T08:06:20.204Z,1.37
2019-03-04T08:09:15.623Z,1.42
2019-03-04T08:12:03.522Z,1.40
2019-03-04T08:14:31.840Z,1.50
2019-03-04T08:17:00.095Z,1.67
2019-03-04T08:19:32.147Z,1.10
2019-03-04T08:22:02.712Z,1.15
2019-03-04T08:24:30.426Z,1.47
2019-03-04T08:26:58.689Z,1.60
2019-03-04T08:29:29.073Z,1.00
2019-03-04T08:32:02.029Z,1.12
2019-03-04T08:34:31.379Z,1.15
2019-03-04T08:36:59.839Z,1.40
2019-03-04T08:39:32.843Z,1.10
2019-03-04T08:42:01.235Z,1.32
2019-03-04T08:44:31.630Z,1.42
2019-03-04T08:47:01.669Z,1.27
2019-03-04T08:49:32.260Z,1.17
2019-03-04T08:52:02.641Z,1.05
2019-03-04T08:54:38.048Z,1.10
2019-03-04T08:57:06.343Z,1.57
2019-03-04T08:59:34.611Z,1.10
2019-03-04T09:02:13.695Z,1.20
2019-03-04T09:04:41.959Z,1.30
2019-03-04T09:07:10.229Z,1.32
2019-03-04T09:09:39.978Z,1.10
2019-03-04T09:12:08.255Z,1.90
2019-03-04T09:14:43.519Z,1.60
2019-03-04T09:17:11.845Z,1.50
2019-03-04T09:19:43.180Z,1.70
2019-03-04T09:22:12.637Z,1.37
2019-03-04T09:24:40.952Z,1.40
2019-03-04T09:27:09.240Z,1.20
2019-03-04T09:29:39.199Z,1.20
2019-03-04T09:32:07.490Z,1.47
2019-03-04T09:34:35.752Z,1.25
2019-03-04T09:37:04.018Z,1.40
2019-03-04T09:39:32.320Z,1.37
2019-03-04T09:42:02.253Z,1.20
2019-03-04T09:44:36.681Z,0.93
2019-03-04T09:47:07.737Z,1.47
2019-03-04T09:49:36.032Z,1.32
2019-03-04T09:52:04.305Z,1.25
2019-03-04T09:54:34.224Z,1.40
2019-03-04T09:57:03.796Z,1.40
2019-03-04T09:59:32.063Z,2.02
2019-03-04T10:02:01.972Z,1.72
2019-03-04T10:04:42.291Z,1.27
2019-03-04T10:07:19.390Z,1.32
2019-03-04T10:10:05.533Z,1.22
2019-03-04T10:12:53.324Z,1.30
2019-03-04T10:15:30.739Z,1.55
2019-03-04T10:18:35.348Z,1.45
2019-03-04T10:21:35.301Z,1.32
2019-03-04T10:24:13.830Z,1.35
2019-03-04T10:26:51.255Z,1.70
2019-03-04T10:29:49.932Z,1.47
2019-03-04T10:32:24.425Z,1.40
2019-03-04T10:34:58.492Z,1.32
2019-03-04T10:37:47.828Z,1.62
2019-03-04T10:40:57.970Z,2.02
2019-03-04T10:43:32.287Z,2.17
2019-03-04T10:46:06.614Z,1.37
2019-03-04T10:48:39.084Z,2.25
2019-03-04T10:53:36.687Z,1.77
2019-03-04T10:56:05.020Z,1.65
2019-03-04T10:58:33.277Z,1.70
2019-03-04T11:01:01.655Z,1.57
2019-03-04T11:03:38.324Z,1.80
2019-03-04T11:06:08.264Z,1.67
2019-03-04T11:08:36.532Z,1.87
2019-03-04T11:11:04.799Z,2.02
2019-03-04T11:13:35.688Z,1.95
2019-03-04T11:16:06.596Z,2.22
2019-03-04T11:18:34.860Z,1.80
2019-03-04T11:21:03.147Z,1.80
2019-03-04T11:23:31.470Z,1.85
2019-03-04T11:25:59.769Z,1.82
2019-03-04T11:28:28.183Z,1.62
2019-03-04T11:30:58.715Z,2.00
2019-03-04T11:33:27.958Z,2.15
2019-03-04T11:35:56.324Z,2.20
2019-03-04T11:38:36.225Z,2.35
2019-03-04T11:41:06.964Z,2.17
2019-03-04T11:43:35.279Z,2.12
2019-03-04T11:46:05.231Z,1.62
2019-03-04T11:48:36.228Z,1.65
2019-03-04T11:51:04.609Z,1.57
2019-03-04T11:53:39.019Z,1.02
2019-03-04T11:56:08.230Z,0.70
2019-03-04T11:58:38.151Z,0.70
2019-03-04T12:01:26.390Z,0.70
2019-03-04T12:03:55.609Z,0.80
2019-03-04T12:06:23.860Z,0.70
2019-03-04T12:08:58.253Z,0.60
2019-03-04T12:11:37.782Z,0.70
2019-03-04T12:13:58.221Z,0.70
2019-03-04T12:16:31.040Z,1.07
2019-03-04T12:18:59.383Z,0.60
2019-03-04T12:21:27.640Z,0.68
2019-03-04T12:23:59.208Z,0.60
2019-03-04T12:26:28.976Z,1.20
2019-03-04T12:28:57.296Z,0.95
2019-03-04T12:31:28.438Z,0.60
2019-03-04T12:33:58.614Z,0.53
2019-03-04T12:36:28.573Z,0.50
2019-03-04T12:38:56.828Z,0.50
2019-03-04T12:41:31.739Z,0.80
2019-03-04T12:44:00.068Z,0.72
2019-03-04T12:46:32.628Z,0.60
2019-03-04T12:51:28.476Z,0.60
2019-03-04T12:53:56.751Z,0.50
2019-03-04T12:56:25.052Z,0.80
2019-03-04T12:58:57.115Z,0.40
2019-03-04T13:01:26.935Z,0.65
2019-03-04T13:03:55.192Z,0.65
2019-03-04T13:06:28.283Z,1.40
2019-03-04T13:08:58.253Z,0.68
2019-03-04T13:11:28.192Z,0.50
2019-03-04T13:13:56.544Z,0.60
2019-03-04T13:16:26.720Z,0.60
2019-03-04T13:18:57.125Z,0.82
2019-03-04T13:21:27.023Z,0.85
2019-03-04T13:23:55.283Z,1.00
2019-03-04T13:26:23.654Z,0.88
2019-03-04T13:28:56.284Z,0.70
2019-03-04T13:31:24.547Z,0.90
2019-03-04T13:33:52.836Z,1.32
2019-03-04T13:36:24.160Z,0.82
2019-03-04T13:38:54.664Z,0.60
2019-03-04T13:41:23.957Z,0.53
2019-03-04T13:43:52.248Z,0.85
2019-03-04T13:46:20.499Z,0.80
2019-03-04T13:48:48.780Z,0.60
2019-03-04T13:51:17.050Z,0.70
2019-03-04T13:53:45.384Z,0.62
2019-03-04T13:56:13.655Z,0.88
2019-03-04T13:58:45.195Z,0.78
2019-03-04T14:01:14.604Z,0.70
2019-03-04T14:03:44.768Z,0.70
2019-03-04T14:06:14.297Z,0.60
2019-03-04T14:08:44.197Z,0.50
2019-03-04T14:11:14.403Z,0.50
2019-03-04T14:13:42.463Z,0.60
2019-03-04T14:16:10.774Z,0.60
2019-03-04T14:18:39.040Z,0.68
2019-03-04T14:21:08.987Z,0.40
2019-03-04T14:23:37.307Z,0.70
2019-03-04T14:26:07.239Z,0.60
2019-03-04T14:28:36.581Z,0.68
2019-03-04T14:31:12.817Z,0.50
2019-03-04T14:33:41.080Z,0.57
2019-03-04T14:36:09.338Z,0.50
2019-03-04T14:38:37.619Z,0.60
2019-03-04T14:41:08.826Z,0.82
2019-03-04T14:43:37.406Z,0.60
2019-03-04T14:46:05.668Z,0.57
2019-03-04T14:48:37.193Z,0.60
2019-03-04T14:51:07.141Z,0.60
2019-03-04T14:53:36.921Z,0.50
2019-03-04T14:56:05.191Z,0.60
2019-03-04T14:58:33.453Z,0.60
2019-03-04T15:01:01.719Z,0.45
2019-03-04T15:03:31.627Z,0.60
2019-03-04T15:06:06.856Z,0.60
2019-03-04T15:08:31.443Z,0.68
2019-03-04T15:11:00.059Z,0.70
2019-03-04T15:13:28.328Z,0.80
2019-03-04T15:16:01.397Z,0.60
2019-03-04T15:18:26.582Z,0.80
2019-03-04T15:20:54.835Z,0.70
2019-03-04T15:23:23.103Z,0.80
2019-03-04T15:25:53.002Z,0.82
2019-03-04T15:28:25.769Z,0.60
2019-03-04T15:30:56.636Z,0.82
2019-03-04T15:33:24.902Z,0.80
2019-03-04T15:35:53.232Z,0.70
2019-03-04T15:38:25.923Z,0.80
2019-03-04T15:40:54.206Z,1.05
2019-03-04T15:43:22.548Z,1.00
2019-03-04T15:45:52.448Z,0.70
2019-03-04T15:48:23.047Z,1.07
2019-03-04T15:50:55.879Z,0.95
2019-03-04T15:53:24.283Z,1.15
2019-03-04T15:55:54.225Z,1.00
2019-03-04T15:58:22.499Z,1.20
2019-03-04T16:00:51.173Z,1.32
2019-03-04T16:03:19.812Z,1.22
2019-03-04T16:05:48.093Z,1.37
2019-03-04T16:08:16.361Z,1.12
2019-03-04T16:10:44.689Z,1.20
2019-03-04T16:13:13.043Z,1.92
2019-03-04T16:15:44.199Z,1.07
2019-03-04T16:18:12.467Z,1.35
2019-03-04T16:20:40.734Z,1.40
2019-03-04T16:23:09.007Z,1.20
2019-03-04T16:25:37.282Z,1.55
2019-03-04T16:28:11.613Z,1.30
2019-03-04T16:30:41.813Z,1.20
2019-03-04T16:33:13.072Z,1.87
2019-03-04T16:35:45.524Z,1.02
2019-03-04T16:40:45.577Z,1.20
2019-03-04T16:43:13.831Z,0.93
2019-03-04T16:45:44.996Z,1.12
2019-03-04T16:48:13.257Z,1.00
2019-03-04T16:50:43.369Z,1.12
2019-03-04T16:53:24.380Z,0.78
2019-03-04T16:55:52.638Z,1.10
2019-03-04T16:58:22.525Z,1.37
2019-03-04T17:00:51.232Z,0.93
2019-03-04T17:03:21.160Z,1.00
2019-03-04T17:05:49.432Z,0.90
2019-03-04T17:08:17.684Z,0.98
2019-03-04T17:10:47.584Z,1.40
2019-03-04T17:13:15.847Z,1.00
2019-03-04T17:15:46.791Z,0.95
2019-03-04T17:18:17.367Z,1.00
2019-03-04T17:20:45.188Z,1.22
2019-03-04T17:23:13.479Z,1.12
2019-03-04T17:25:41.778Z,1.05
2019-03-04T17:28:13.136Z,0.95
2019-03-04T17:30:42.810Z,1.00
2019-03-04T17:33:11.380Z,0.90
2019-03-04T17:35:39.679Z,0.80
2019-03-04T17:38:07.946Z,0.75
2019-03-04T17:40:36.200Z,1.07
2019-03-04T17:43:04.460Z,0.90
2019-03-04T17:45:32.739Z,0.93
2019-03-04T17:48:01.036Z,1.00
2019-03-04T17:50:46.824Z,0.90
2019-03-04T17:53:16.255Z,0.75
2019-03-04T17:55:45.562Z,0.80
2019-03-04T17:58:13.920Z,0.80
2019-03-04T18:00:47.036Z,0.93
2019-03-04T18:03:15.507Z,0.82
2019-03-04T18:05:43.768Z,0.72
2019-03-04T18:08:12.037Z,0.90
2019-03-04T18:10:40.316Z,0.62
2019-03-04T18:13:14.184Z,0.70
2019-03-04T18:15:43.036Z,0.50
2019-03-04T18:18:15.764Z,0.60
2019-03-04T18:20:44.026Z,0.70
2019-03-04T18:23:12.328Z,0.55
2019-03-04T18:25:46.561Z,0.55
2019-03-04T18:28:18.164Z,0.50
2019-03-04T18:30:55.498Z,0.78
2019-03-04T18:33:43.456Z,0.50
2019-03-04T18:36:29.771Z,0.80
2019-03-04T18:39:07.557Z,0.80
2019-03-04T18:41:44.292Z,0.70
2019-03-04T18:44:24.752Z,0.60
2019-03-04T18:47:29.183Z,0.68
2019-03-04T18:49:58.750Z,0.90
2019-03-04T18:52:27.063Z,1.12
2019-03-04T18:54:55.387Z,1.10
2019-03-04T18:57:23.663Z,1.10
2019-03-04T18:59:54.837Z,1.02
2019-03-04T19:02:23.095Z,0.88
2019-03-04T19:04:51.373Z,1.25
2019-03-04T19:07:19.653Z,1.25
2019-03-04T19:09:50.030Z,0.80
2019-03-04T19:12:18.323Z,1.00
2019-03-04T19:14:46.588Z,1.00
2019-03-04T19:17:16.753Z,0.90
2019-03-04T19:19:45.041Z,0.62
2019-03-04T19:22:20.305Z,1.27
2019-03-04T19:24:51.152Z,1.00
2019-03-04T19:27:21.706Z,1.10
2019-03-04T19:29:50.855Z,1.10
2019-03-04T19:32:19.187Z,1.50
2019-03-04T19:34:47.532Z,1.10
2019-03-04T19:37:15.804Z,1.22
2019-03-04T19:39:44.152Z,1.10
2019-03-04T19:42:13.821Z,1.40
2019-03-04T19:44:42.065Z,1.02
2019-03-04T19:47:14.715Z,1.87
2019-03-04T19:49:43.021Z,0.93
2019-03-04T19:52:12.953Z,1.30
2019-03-04T19:54:41.215Z,1.70
2019-03-04T19:57:09.512Z,1.05
2019-03-04T19:59:37.804Z,1.50
2019-03-04T20:02:08.807Z,1.40
2019-03-04T20:04:42.371Z,1.20
2019-03-04T20:07:10.649Z,1.25
2019-03-04T20:09:42.600Z,1.12
2019-03-04T20:12:12.604Z,1.20
2019-03-04T20:14:40.876Z,1.10
2019-03-04T20:17:15.191Z,0.80
